createdAt,value
2019-01-25T00:00:08.918Z,95.50
2019-01-25T00:02:36.319Z,95.80
2019-01-25T00:05:05.298Z,98.00
2019-01-25T00:07:32.697Z,97.00
2019-01-25T00:10:00.208Z,99.70
2019-01-25T00:12:27.699Z,99.90
2019-01-25T00:14:55.102Z,99.90
2019-01-25T00:17:22.499Z,97.70
2019-01-25T00:19:49.920Z,97.90
2019-01-25T00:22:17.314Z,96.40
2019-01-25T00:24:44.711Z,94.00
2019-01-25T00:27:12.323Z,94.20
2019-01-25T00:29:39.714Z,93.20
2019-01-25T00:32:07.127Z,93.00
2019-01-25T00:34:34.566Z,93.40
2019-01-25T00:37:02.200Z,95.90
2019-01-25T00:39:29.618Z,94.00
2019-01-25T00:41:57.511Z,93.70
2019-01-25T00:44:24.906Z,96.90
2019-01-25T00:46:52.306Z,95.20
2019-01-25T00:49:19.719Z,96.80
2019-01-25T00:51:47.111Z,95.30
2019-01-25T00:54:14.495Z,95.00
2019-01-25T00:56:42.034Z,95.90
2019-01-25T00:59:09.434Z,95.40
2019-01-25T01:01:36.828Z,94.40
2019-01-25T01:04:04.650Z,96.00
2019-01-25T01:06:32.041Z,96.50
2019-01-25T01:08:59.439Z,96.70
2019-01-25T01:11:27.050Z,96.60
2019-01-25T01:13:54.440Z,96.10
2019-01-25T01:16:21.831Z,95.90
2019-01-25T01:18:49.275Z,94.40
2019-01-25T01:21:16.671Z,93.60
2019-01-25T01:23:44.056Z,93.20
2019-01-25T01:26:11.620Z,95.60
2019-01-25T01:28:39.023Z,95.70
2019-01-25T01:31:06.402Z,96.30
2019-01-25T01:33:34.012Z,96.90
2019-01-25T01:36:01.691Z,96.50
2019-01-25T01:38:29.393Z,97.00
2019-01-25T01:40:57.010Z,96.00
2019-01-25T01:43:24.408Z,97.50
2019-01-25T01:45:51.804Z,96.70
2019-01-25T01:48:19.227Z,96.40
2019-01-25T01:50:46.610Z,96.50
2019-01-25T01:53:14.014Z,97.10
2019-01-25T01:55:41.679Z,96.20
2019-01-25T01:58:09.089Z,96.20
2019-01-25T02:00:36.487Z,94.60
2019-01-25T02:03:04.496Z,94.40
2019-01-25T02:05:31.871Z,94.10
2019-01-25T02:07:59.423Z,92.90
2019-01-25T02:10:29.613Z,91.60
2019-01-25T02:12:56.418Z,93.30
2019-01-25T02:15:24.618Z,91.50
2019-01-25T02:17:52.284Z,91.90
2019-01-25T02:20:24.821Z,91.50
2019-01-25T02:22:52.211Z,91.20
2019-01-25T02:25:20.134Z,90.60
2019-01-25T02:27:47.536Z,90.40
2019-01-25T02:30:17.731Z,89.20
2019-01-25T02:32:45.172Z,89.80
2019-01-25T02:35:12.571Z,89.80
2019-01-25T02:37:40.218Z,89.50
2019-01-25T02:40:10.521Z,90.00
2019-01-25T02:42:37.938Z,88.90
2019-01-25T02:45:06.905Z,88.40
2019-01-25T02:47:34.533Z,88.00
2019-01-25T02:50:01.963Z,88.30
2019-01-25T02:52:29.346Z,88.10
2019-01-25T02:54:56.817Z,88.10
2019-01-25T02:57:24.202Z,87.70
2019-01-25T02:59:51.597Z,86.40
2019-01-25T03:02:19.133Z,86.90
2019-01-25T03:04:46.522Z,87.60
2019-01-25T03:07:13.935Z,87.00
2019-01-25T03:09:41.362Z,87.10
2019-01-25T03:12:08.756Z,86.80
2019-01-25T03:14:36.165Z,87.00
2019-01-25T03:17:03.594Z,85.60
2019-01-25T03:19:31.001Z,85.70
2019-01-25T03:21:59.553Z,84.70
2019-01-25T03:24:26.958Z,85.00
2019-01-25T03:26:54.359Z,85.90
2019-01-25T03:29:21.802Z,86.00
2019-01-25T03:31:49.252Z,85.30
2019-01-25T03:34:16.636Z,85.20
2019-01-25T03:36:44.324Z,85.60
2019-01-25T03:39:12.130Z,85.50
2019-01-25T03:41:39.527Z,85.50
2019-01-25T03:44:06.923Z,85.70
2019-01-25T03:46:34.345Z,85.50
2019-01-25T03:49:01.752Z,85.30
2019-01-25T03:51:29.154Z,86.20
2019-01-25T03:53:56.755Z,86.10
2019-01-25T03:56:24.161Z,86.10
2019-01-25T03:58:51.552Z,85.50
2019-01-25T04:01:18.990Z,85.40
2019-01-25T04:03:46.392Z,85.70
2019-01-25T04:06:13.791Z,84.20
2019-01-25T04:08:41.229Z,83.60
2019-01-25T04:11:08.619Z,84.10
2019-01-25T04:13:36.018Z,85.00
2019-01-25T04:16:04.091Z,85.60
2019-01-25T04:18:31.506Z,84.90
2019-01-25T04:20:58.902Z,84.40
2019-01-25T04:23:26.610Z,85.00
2019-01-25T04:25:54.011Z,86.10
2019-01-25T04:28:21.397Z,86.80
2019-01-25T04:30:49.098Z,86.50
2019-01-25T04:33:16.522Z,86.80
2019-01-25T04:35:43.921Z,85.60
2019-01-25T04:38:11.363Z,85.80
2019-01-25T04:40:39.275Z,86.90
2019-01-25T04:43:06.675Z,87.60
2019-01-25T04:45:34.138Z,87.60
2019-01-25T04:48:01.541Z,86.80
2019-01-25T04:50:28.931Z,87.00
2019-01-25T04:52:56.577Z,86.70
2019-01-25T04:55:29.472Z,87.10
2019-01-25T04:58:17.745Z,87.00
2019-01-25T05:00:45.266Z,87.50
2019-01-25T05:03:13.048Z,87.70
2019-01-25T05:05:40.515Z,88.40
2019-01-25T05:08:16.231Z,88.80
2019-01-25T05:10:44.111Z,89.20
2019-01-25T05:13:11.503Z,89.00
2019-01-25T05:15:38.900Z,89.40
2019-01-25T05:18:07.111Z,90.20
2019-01-25T05:20:34.618Z,90.60
2019-01-25T05:23:02.535Z,91.40
2019-01-25T05:25:29.979Z,91.00
2019-01-25T05:28:05.318Z,91.20
2019-01-25T05:30:32.755Z,91.30
2019-01-25T05:33:00.150Z,91.10
2019-01-25T05:35:32.770Z,90.50
2019-01-25T05:38:00.227Z,91.90
2019-01-25T05:40:27.814Z,91.50
2019-01-25T05:42:55.213Z,92.40
2019-01-25T05:45:22.918Z,92.20
2019-01-25T05:47:50.306Z,93.30
2019-01-25T05:50:17.735Z,93.00
2019-01-25T05:52:45.282Z,92.50
2019-01-25T05:55:15.963Z,93.30
2019-01-25T05:57:43.327Z,92.00
2019-01-25T06:00:11.936Z,92.10
2019-01-25T06:02:39.347Z,91.60
2019-01-25T06:05:07.005Z,91.70
2019-01-25T06:07:36.425Z,93.20
2019-01-25T06:10:04.426Z,92.90
2019-01-25T06:12:31.883Z,93.00
2019-01-25T06:14:59.327Z,92.20
2019-01-25T06:17:26.922Z,91.20
2019-01-25T06:19:54.349Z,99.90
2019-01-25T06:22:21.794Z,99.90
2019-01-25T06:24:49.205Z,99.90
2019-01-25T06:27:16.607Z,99.90
2019-01-25T06:29:44.058Z,99.90
2019-01-25T06:32:11.510Z,99.90
2019-01-25T06:34:38.898Z,99.90
2019-01-25T06:37:06.338Z,99.90
2019-01-25T06:39:33.954Z,99.90
2019-01-25T06:42:01.642Z,99.90
2019-01-25T06:44:29.094Z,99.90
2019-01-25T06:46:56.494Z,99.90
2019-01-25T06:49:23.885Z,99.90
2019-01-25T06:51:51.354Z,99.90
2019-01-25T06:54:18.766Z,99.90
2019-01-25T06:56:46.156Z,99.90
2019-01-25T06:59:16.338Z,99.90
2019-01-25T07:01:53.203Z,99.90
2019-01-25T07:04:21.149Z,99.90
2019-01-25T07:06:48.546Z,99.90
2019-01-25T07:09:15.936Z,99.90
2019-01-25T07:11:43.743Z,99.90
2019-01-25T07:14:11.140Z,99.90
2019-01-25T07:16:38.532Z,99.90
2019-01-25T07:19:05.992Z,99.90
2019-01-25T07:21:33.390Z,99.90
2019-01-25T07:24:00.803Z,99.90
2019-01-25T07:26:28.406Z,99.90
2019-01-25T07:28:55.870Z,99.90
2019-01-25T07:31:23.255Z,99.90
2019-01-25T07:33:50.711Z,99.90
2019-01-25T07:36:18.104Z,99.90
2019-01-25T07:38:45.768Z,99.90
2019-01-25T07:41:13.588Z,99.90
2019-01-25T07:43:41.041Z,99.90
2019-01-25T07:46:08.500Z,99.90
2019-01-25T07:48:36.184Z,99.90
2019-01-25T07:51:03.765Z,99.90
2019-01-25T07:53:31.159Z,99.90
2019-01-25T07:55:58.616Z,99.90
2019-01-25T07:58:26.037Z,99.90
2019-01-25T08:00:53.465Z,99.90
2019-01-25T08:03:20.882Z,99.90
2019-01-25T08:05:48.312Z,99.90
2019-01-25T08:08:15.687Z,99.90
2019-01-25T08:10:43.240Z,99.90
2019-01-25T08:13:10.643Z,99.90
2019-01-25T08:15:38.065Z,99.90
2019-01-25T08:18:05.561Z,99.90
2019-01-25T08:20:32.958Z,99.90
2019-01-25T08:23:00.347Z,99.90
2019-01-25T08:25:28.047Z,99.90
2019-01-25T08:27:55.605Z,99.90
2019-01-25T08:30:23.196Z,99.00
2019-01-25T08:32:52.428Z,99.90
2019-01-25T08:35:20.700Z,99.80
2019-01-25T08:37:48.365Z,98.10
2019-01-25T08:40:16.269Z,97.70
2019-01-25T08:42:43.911Z,95.80
2019-01-25T08:45:12.025Z,95.80
2019-01-25T08:47:39.417Z,95.70
2019-01-25T08:50:10.786Z,94.40
2019-01-25T08:52:38.375Z,91.90
2019-01-25T08:55:06.034Z,92.10
2019-01-25T08:57:33.413Z,94.80
2019-01-25T09:00:00.851Z,89.40
2019-01-25T09:02:28.242Z,89.40
2019-01-25T09:04:55.650Z,88.80
2019-01-25T09:07:23.263Z,86.60
2019-01-25T09:09:50.674Z,85.70
2019-01-25T09:12:23.283Z,85.10
2019-01-25T09:14:47.498Z,84.10
2019-01-25T09:17:14.955Z,84.00
2019-01-25T09:19:42.362Z,83.90
2019-01-25T09:22:09.820Z,85.20
2019-01-25T09:24:37.238Z,84.50
2019-01-25T09:27:05.643Z,83.60
2019-01-25T09:29:33.188Z,80.90
2019-01-25T09:32:00.576Z,81.60
2019-01-25T09:34:27.964Z,81.90
2019-01-25T09:36:55.586Z,79.00
2019-01-25T09:39:23.158Z,80.50
2019-01-25T09:41:50.758Z,80.40
2019-01-25T09:44:18.190Z,77.50
2019-01-25T09:46:45.577Z,77.70
2019-01-25T09:49:12.988Z,78.70
2019-01-25T09:51:40.562Z,75.70
2019-01-25T09:54:07.992Z,77.50
2019-01-25T09:56:35.463Z,77.90
2019-01-25T09:59:03.198Z,71.90
2019-01-25T10:01:30.603Z,74.20
2019-01-25T10:03:57.986Z,74.60
2019-01-25T10:06:25.534Z,75.10
2019-01-25T10:08:52.954Z,73.30
2019-01-25T10:11:20.362Z,72.70
2019-01-25T10:13:48.241Z,60.60
2019-01-25T10:16:15.626Z,65.60
2019-01-25T10:18:43.042Z,70.90
2019-01-25T10:21:10.482Z,72.90
2019-01-25T10:23:39.244Z,73.40
2019-01-25T10:26:06.777Z,68.20
2019-01-25T10:28:34.226Z,72.40
2019-01-25T10:31:01.721Z,70.00
2019-01-25T10:33:29.106Z,70.30
2019-01-25T10:35:56.530Z,70.10
2019-01-25T10:38:24.196Z,69.10
2019-01-25T10:40:52.098Z,65.90
2019-01-25T10:43:19.566Z,66.80
2019-01-25T10:45:46.966Z,68.40
2019-01-25T10:48:14.354Z,69.60
2019-01-25T10:50:41.994Z,68.40
2019-01-25T10:53:09.394Z,70.00
2019-01-25T10:55:36.787Z,70.10
2019-01-25T10:58:05.474Z,66.90
2019-01-25T11:00:32.888Z,69.30
2019-01-25T11:03:00.279Z,69.10
2019-01-25T11:05:28.184Z,67.60
2019-01-25T11:07:55.799Z,67.90
2019-01-25T11:10:23.290Z,67.40
2019-01-25T11:12:50.730Z,68.80
2019-01-25T11:15:21.690Z,69.10
2019-01-25T11:17:49.534Z,69.50
2019-01-25T11:20:21.760Z,68.00
2019-01-25T11:22:49.271Z,67.50
2019-01-25T11:25:24.848Z,67.20
2019-01-25T11:27:52.234Z,68.00
2019-01-25T11:30:19.842Z,68.60
2019-01-25T11:32:47.386Z,66.40
2019-01-25T11:35:14.786Z,66.40
2019-01-25T11:37:42.209Z,66.50
2019-01-25T11:40:22.459Z,67.50
2019-01-25T11:42:50.650Z,66.50
2019-01-25T11:45:18.140Z,67.00
2019-01-25T11:47:46.075Z,64.30
2019-01-25T11:50:14.603Z,63.60
2019-01-25T11:52:42.002Z,63.40
2019-01-25T11:55:09.954Z,61.90
2019-01-25T11:57:37.354Z,64.80
2019-01-25T12:00:08.419Z,64.30
2019-01-25T12:02:35.850Z,66.70
2019-01-25T12:05:03.758Z,63.70
2019-01-25T12:07:31.159Z,63.30
2019-01-25T12:09:58.607Z,62.90
2019-01-25T12:12:25.986Z,61.60
2019-01-25T12:14:53.395Z,67.30
2019-01-25T12:17:20.812Z,65.50
2019-01-25T12:19:48.225Z,66.00
2019-01-25T12:22:15.617Z,64.70
2019-01-25T12:24:43.055Z,65.70
2019-01-25T12:27:10.451Z,63.90
2019-01-25T12:29:37.868Z,60.80
2019-01-25T12:32:05.319Z,65.30
2019-01-25T12:34:32.742Z,62.90
2019-01-25T12:37:04.607Z,63.40
2019-01-25T12:39:29.538Z,64.40
2019-01-25T12:41:57.454Z,62.50
2019-01-25T12:44:24.836Z,63.80
2019-01-25T12:46:52.271Z,64.60
2019-01-25T12:49:19.674Z,65.10
2019-01-25T12:51:53.783Z,64.60
2019-01-25T12:54:21.202Z,63.40
2019-01-25T12:56:48.668Z,64.40
2019-01-25T12:59:16.159Z,65.20
2019-01-25T13:01:43.570Z,66.50
2019-01-25T13:04:10.995Z,66.70
2019-01-25T13:06:38.594Z,66.10
2019-01-25T13:09:08.818Z,66.40
2019-01-25T13:11:36.214Z,65.30
2019-01-25T13:14:03.767Z,66.90
2019-01-25T13:16:31.182Z,66.60
2019-01-25T13:19:00.394Z,67.60
2019-01-25T13:21:27.897Z,66.60
2019-01-25T13:23:55.286Z,65.20
2019-01-25T13:26:24.514Z,66.60
2019-01-25T13:28:51.973Z,67.20
2019-01-25T13:31:19.370Z,68.10
2019-01-25T13:33:48.674Z,66.40
2019-01-25T13:36:16.199Z,66.40
2019-01-25T13:38:43.595Z,67.50
2019-01-25T13:41:11.355Z,68.40
2019-01-25T13:43:39.358Z,67.60
2019-01-25T13:46:06.906Z,67.70
2019-01-25T13:48:34.298Z,67.10
2019-01-25T13:51:01.912Z,68.70
2019-01-25T13:53:29.298Z,68.30
2019-01-25T13:55:56.690Z,67.90
2019-01-25T13:58:24.160Z,68.60
2019-01-25T14:00:51.548Z,67.70
2019-01-25T14:03:18.943Z,67.00
2019-01-25T14:05:46.586Z,67.40
2019-01-25T14:08:14.039Z,67.10
2019-01-25T14:10:41.476Z,68.90
2019-01-25T14:13:09.070Z,68.40
2019-01-25T14:15:36.538Z,69.60
2019-01-25T14:18:04.762Z,70.30
2019-01-25T14:20:32.474Z,70.40
2019-01-25T14:23:00.005Z,72.00
2019-01-25T14:25:27.482Z,72.40
2019-01-25T14:27:54.931Z,73.00
2019-01-25T14:30:30.038Z,74.30
2019-01-25T14:32:57.673Z,74.80
2019-01-25T14:35:26.871Z,75.10
2019-01-25T14:37:54.271Z,75.90
2019-01-25T14:40:21.755Z,76.30
2019-01-25T14:42:49.223Z,75.40
2019-01-25T14:45:16.903Z,76.40
2019-01-25T14:47:44.360Z,76.00
2019-01-25T14:50:14.839Z,76.60
2019-01-25T14:52:42.259Z,75.50
2019-01-25T14:55:09.911Z,75.80
2019-01-25T14:57:37.320Z,75.50
2019-01-25T15:00:05.552Z,75.90
2019-01-25T15:02:33.001Z,75.90
2019-01-25T15:05:00.529Z,76.00
2019-01-25T15:07:27.914Z,76.40
2019-01-25T15:09:55.470Z,76.70
2019-01-25T15:12:22.926Z,77.40
2019-01-25T15:14:50.311Z,77.30
2019-01-25T15:17:17.930Z,76.80
2019-01-25T15:19:45.322Z,78.10
2019-01-25T15:22:12.727Z,78.50
2019-01-25T15:24:40.322Z,78.20
2019-01-25T15:27:07.760Z,76.20
2019-01-25T15:29:35.151Z,78.40
2019-01-25T15:32:02.656Z,78.00
2019-01-25T15:34:30.062Z,79.20
2019-01-25T15:36:57.463Z,78.30
2019-01-25T15:39:24.994Z,78.80
2019-01-25T15:41:52.675Z,78.80
2019-01-25T15:44:20.288Z,78.20
2019-01-25T15:46:47.730Z,77.90
2019-01-25T15:49:15.175Z,79.40
2019-01-25T15:51:42.655Z,77.90
2019-01-25T15:54:10.286Z,77.60
2019-01-25T15:56:37.690Z,77.40
2019-01-25T15:59:05.095Z,78.00
2019-01-25T16:01:32.524Z,79.40
2019-01-25T16:03:59.922Z,81.90
2019-01-25T16:06:27.336Z,82.00
2019-01-25T16:08:54.794Z,83.60
2019-01-25T16:11:22.199Z,85.00
2019-01-25T16:13:49.903Z,82.30
2019-01-25T16:16:17.358Z,85.10
2019-01-25T16:18:44.754Z,84.70
2019-01-25T16:21:12.158Z,87.00
2019-01-25T16:23:39.594Z,87.80
2019-01-25T16:26:07.070Z,87.00
2019-01-25T16:28:34.458Z,86.40
2019-01-25T16:31:02.127Z,87.20
2019-01-25T16:33:29.506Z,87.90
2019-01-25T16:35:56.916Z,88.70
2019-01-25T16:38:24.488Z,88.20
2019-01-25T16:40:52.072Z,87.50
2019-01-25T16:43:20.525Z,87.00
2019-01-25T16:45:48.106Z,87.50
2019-01-25T16:48:15.518Z,83.30
2019-01-25T16:50:42.995Z,86.80
2019-01-25T16:53:12.044Z,86.30
2019-01-25T16:55:39.447Z,85.80
2019-01-25T16:58:07.083Z,85.70
2019-01-25T17:00:40.384Z,87.10
2019-01-25T17:03:07.892Z,86.70
2019-01-25T17:05:36.786Z,87.80
2019-01-25T17:08:04.935Z,86.30
2019-01-25T17:10:32.330Z,88.90
2019-01-25T17:13:00.546Z,90.00
2019-01-25T17:15:27.942Z,87.00
2019-01-25T17:17:55.344Z,89.20
2019-01-25T17:20:23.075Z,91.60
2019-01-25T17:22:50.465Z,92.00
2019-01-25T17:25:17.874Z,90.90
2019-01-25T17:27:45.330Z,90.90
2019-01-25T17:30:26.793Z,88.10
2019-01-25T17:32:55.255Z,91.00
2019-01-25T17:35:22.662Z,90.40
2019-01-25T17:37:50.163Z,90.60
2019-01-25T17:40:19.082Z,90.10
2019-01-25T17:42:46.490Z,90.60
2019-01-25T17:45:15.022Z,87.40
2019-01-25T17:47:42.426Z,86.40
2019-01-25T17:50:11.406Z,90.60
2019-01-25T17:52:38.894Z,91.20
2019-01-25T17:55:07.155Z,92.40
2019-01-25T17:57:34.562Z,91.70
2019-01-25T18:00:02.039Z,91.10
2019-01-25T18:02:29.574Z,89.40
2019-01-25T18:04:57.070Z,89.70
2019-01-25T18:07:24.758Z,88.40
2019-01-25T18:09:52.176Z,89.10
2019-01-25T18:12:19.569Z,90.60
2019-01-25T18:14:49.326Z,89.50
2019-01-25T18:17:16.210Z,89.00
2019-01-25T18:19:43.622Z,89.00
2019-01-25T18:22:11.087Z,89.60
2019-01-25T18:24:38.486Z,91.00
2019-01-25T18:27:05.899Z,89.50
2019-01-25T18:30:00.099Z,89.00
2019-01-25T18:32:27.558Z,86.20
2019-01-25T18:34:54.961Z,84.40
2019-01-25T18:37:22.436Z,87.20
2019-01-25T18:39:49.846Z,87.30
2019-01-25T18:42:17.446Z,84.00
2019-01-25T18:44:44.922Z,86.70
2019-01-25T18:47:12.550Z,86.30
2019-01-25T18:49:39.956Z,86.50
2019-01-25T18:52:07.626Z,83.50
2019-01-25T18:54:35.026Z,87.10
2019-01-25T18:57:02.434Z,84.10
2019-01-25T18:59:30.012Z,85.70
2019-01-25T19:01:57.402Z,85.50
2019-01-25T19:04:24.810Z,87.50
2019-01-25T19:06:52.246Z,87.90
2019-01-25T19:09:19.652Z,87.00
2019-01-25T19:11:47.054Z,87.00
2019-01-25T19:14:14.589Z,86.30
2019-01-25T19:16:41.969Z,85.90
2019-01-25T19:19:09.462Z,84.80
2019-01-25T19:21:36.905Z,84.90
2019-01-25T19:24:04.319Z,85.00
2019-01-25T19:26:31.750Z,85.30
2019-01-25T19:28:59.202Z,87.20
2019-01-25T19:31:26.598Z,88.80
2019-01-25T19:33:53.993Z,90.80
2019-01-25T19:36:22.366Z,91.70
2019-01-25T19:38:49.927Z,88.50
2019-01-25T19:41:17.326Z,88.00
2019-01-25T19:43:44.823Z,89.80
2019-01-25T19:46:12.521Z,90.60
2019-01-25T19:48:40.210Z,91.50
2019-01-25T19:51:07.771Z,93.70
2019-01-25T19:53:35.539Z,92.20
2019-01-25T19:56:03.414Z,91.80
2019-01-25T19:58:33.823Z,89.40
2019-01-25T20:01:01.246Z,88.50
2019-01-25T20:03:28.673Z,86.10
2019-01-25T20:05:56.121Z,87.60
2019-01-25T20:08:23.538Z,88.10
2019-01-25T20:10:51.042Z,87.80
2019-01-25T20:13:18.817Z,86.80
2019-01-25T20:15:46.232Z,87.70
2019-01-25T20:18:13.662Z,86.10
2019-01-25T20:20:41.485Z,86.80
2019-01-25T20:23:09.032Z,84.70
2019-01-25T20:25:36.470Z,85.20
2019-01-25T20:28:05.797Z,85.10
2019-01-25T20:30:33.334Z,85.60
2019-01-25T20:33:01.579Z,84.10
2019-01-25T20:35:31.582Z,87.50
2019-01-25T20:37:58.977Z,89.20
2019-01-25T20:40:26.639Z,87.40
2019-01-25T20:42:54.475Z,86.20
2019-01-25T20:45:27.192Z,85.50
2019-01-25T20:47:54.634Z,86.30
2019-01-25T20:50:24.538Z,86.10
2019-01-25T20:52:53.870Z,85.80
2019-01-25T20:55:21.280Z,87.00
2019-01-25T20:57:48.867Z,86.30
2019-01-25T21:00:19.329Z,86.80
2019-01-25T21:02:46.811Z,88.60
2019-01-25T21:05:14.658Z,88.30
2019-01-25T21:07:42.171Z,88.90
2019-01-25T21:10:12.112Z,87.10
2019-01-25T21:12:39.818Z,87.90
2019-01-25T21:15:09.001Z,88.30
2019-01-25T21:17:36.414Z,88.80
2019-01-25T21:20:07.043Z,88.40
2019-01-25T21:22:34.518Z,89.30
2019-01-25T21:25:01.964Z,89.10
2019-01-25T21:27:29.420Z,89.00
2019-01-25T21:29:56.887Z,88.80
2019-01-25T21:32:24.290Z,87.90
2019-01-25T21:34:51.736Z,88.50
2019-01-25T21:37:19.150Z,85.90
2019-01-25T21:39:46.554Z,86.40
2019-01-25T21:42:14.139Z,87.80
2019-01-25T21:44:41.818Z,89.20
2019-01-25T21:47:09.532Z,86.50
2019-01-25T21:49:36.934Z,87.40
2019-01-25T21:52:04.433Z,88.80
2019-01-25T21:54:31.847Z,86.60
2019-01-25T21:56:59.839Z,86.70
2019-01-25T21:59:27.252Z,89.00
2019-01-25T22:01:54.668Z,88.20
2019-01-25T22:04:23.342Z,88.40
2019-01-25T22:06:50.890Z,86.10
2019-01-25T22:09:18.302Z,84.90
2019-01-25T22:11:45.942Z,86.80
2019-01-25T22:14:13.340Z,85.70
2019-01-25T22:16:40.762Z,85.10
2019-01-25T22:19:08.543Z,84.80
2019-01-25T22:21:36.962Z,84.10
2019-01-25T22:24:04.463Z,85.60
2019-01-25T22:26:31.943Z,85.20
2019-01-25T22:28:59.343Z,84.80
2019-01-25T22:31:26.763Z,85.70
2019-01-25T22:33:54.236Z,85.50
2019-01-25T22:36:21.639Z,84.50
2019-01-25T22:38:49.030Z,84.60
2019-01-25T22:41:16.619Z,85.40
2019-01-25T22:43:44.027Z,84.90
2019-01-25T22:46:11.658Z,85.50
2019-01-25T22:48:39.619Z,86.00
2019-01-25T22:51:07.006Z,86.10
2019-01-25T22:53:34.418Z,86.30
2019-01-25T22:56:01.902Z,86.70
2019-01-25T22:58:29.320Z,86.60
2019-01-25T23:01:24.251Z,87.10
2019-01-25T23:04:28.909Z,86.10
2019-01-25T23:07:17.406Z,85.90
2019-01-25T23:09:56.339Z,87.40
2019-01-25T23:12:24.104Z,88.40
2019-01-25T23:14:51.488Z,86.70
2019-01-25T23:17:18.909Z,87.20
2019-01-25T23:19:46.483Z,86.70
2019-01-25T23:22:13.879Z,87.40
2019-01-25T23:24:41.289Z,88.20
2019-01-25T23:27:08.774Z,87.90
2019-01-25T23:29:36.170Z,87.70
2019-01-25T23:32:03.934Z,88.70
2019-01-25T23:34:31.466Z,87.60
2019-01-25T23:36:58.863Z,88.20
2019-01-25T23:39:26.258Z,87.50
2019-01-25T23:41:53.734Z,87.60
2019-01-25T23:44:21.123Z,88.00
2019-01-25T23:46:48.674Z,91.80
2019-01-25T23:49:16.735Z,92.00
2019-01-25T23:51:44.130Z,91.30
2019-01-25T23:54:11.536Z,90.30
2019-01-25T23:56:38.961Z,90.00
2019-01-25T23:59:06.370Z,90.00
